createdAt,value
2017-09-13T00:01:06.221Z,2.50
2017-09-13T00:03:33.777Z,3.30
2017-09-13T00:06:01.388Z,2.50
2017-09-13T00:08:28.948Z,2.80
2017-09-13T00:10:56.505Z,2.42
2017-09-13T00:13:24.105Z,2.50
2017-09-13T00:15:51.734Z,2.87
2017-09-13T00:18:20.108Z,2.50
2017-09-13T00:20:47.660Z,2.92
2017-09-13T00:23:15.208Z,3.03
2017-09-13T00:25:43.557Z,3.10
2017-09-13T00:28:11.149Z,2.67
2017-09-13T00:30:39.467Z,2.65
2017-09-13T00:33:07.062Z,3.08
2017-09-13T00:35:34.646Z,3.05
2017-09-13T00:38:02.233Z,3.12
2017-09-13T00:40:29.838Z,2.97
2017-09-13T00:42:57.392Z,3.20
2017-09-13T00:45:24.970Z,2.80
2017-09-13T00:47:52.572Z,3.08
2017-09-13T00:50:20.354Z,3.55
2017-09-13T00:52:47.935Z,3.10
2017-09-13T00:55:15.597Z,2.30
2017-09-13T00:57:43.165Z,3.05
2017-09-13T01:00:10.755Z,3.45
2017-09-13T01:02:38.318Z,2.08
2017-09-13T01:05:06.687Z,3.10
2017-09-13T01:07:35.018Z,2.90
2017-09-13T01:10:02.579Z,2.87
2017-09-13T01:12:30.205Z,3.42
2017-09-13T01:14:57.770Z,2.62
2017-09-13T01:17:25.325Z,2.90
2017-09-13T01:19:53.698Z,3.08
2017-09-13T01:22:22.031Z,4.05
2017-09-13T01:24:49.591Z,2.83
2017-09-13T01:27:17.199Z,4.12
2017-09-13T01:29:45.522Z,3.80
2017-09-13T01:32:13.073Z,3.33
2017-09-13T01:34:40.685Z,3.20
2017-09-13T01:37:08.283Z,2.40
2017-09-13T01:39:35.854Z,2.75
2017-09-13T01:42:03.463Z,2.80
2017-09-13T01:44:31.840Z,3.17
2017-09-13T01:46:59.419Z,3.67
2017-09-13T01:49:27.766Z,3.47
2017-09-13T01:51:55.367Z,2.72
2017-09-13T01:54:23.698Z,3.42
2017-09-13T01:56:51.247Z,3.35
2017-09-13T01:59:18.859Z,3.00
2017-09-13T02:01:47.236Z,2.60
2017-09-13T02:04:15.558Z,3.28
2017-09-13T02:06:43.177Z,3.15
2017-09-13T02:09:11.562Z,2.85
2017-09-13T02:11:39.911Z,2.87
2017-09-13T02:14:07.492Z,2.97
2017-09-13T02:16:36.558Z,3.92
2017-09-13T02:19:04.158Z,2.60
2017-09-13T02:21:32.485Z,3.03
2017-09-13T02:24:00.029Z,2.72
2017-09-13T02:26:27.632Z,3.00
2017-09-13T02:28:55.967Z,3.00
2017-09-13T02:31:23.571Z,3.00
2017-09-13T02:33:51.141Z,3.03
2017-09-13T02:36:19.468Z,3.42
2017-09-13T02:38:47.061Z,2.80
2017-09-13T02:41:15.473Z,2.70
2017-09-13T02:43:43.972Z,2.85
2017-09-13T02:46:11.739Z,2.37
2017-09-13T02:48:39.361Z,3.53
2017-09-13T02:51:07.739Z,2.30
2017-09-13T02:53:35.354Z,2.83
2017-09-13T02:56:02.910Z,2.60
2017-09-13T02:58:30.541Z,2.85
2017-09-13T03:00:58.873Z,3.70
2017-09-13T03:03:26.478Z,3.03
2017-09-13T03:05:54.090Z,3.22
2017-09-13T03:08:21.669Z,2.65
2017-09-13T03:10:49.220Z,2.95
2017-09-13T03:13:16.789Z,3.08
2017-09-13T03:15:44.360Z,3.65
2017-09-13T03:18:11.952Z,3.35
2017-09-13T03:20:39.561Z,2.45
2017-09-13T03:23:07.125Z,2.50
2017-09-13T03:25:34.685Z,1.90
2017-09-13T03:28:02.277Z,2.55
2017-09-13T03:30:30.646Z,2.87
2017-09-13T03:32:58.201Z,3.03
2017-09-13T03:35:25.810Z,3.30
2017-09-13T03:37:53.381Z,2.28
2017-09-13T03:40:20.946Z,2.97
2017-09-13T03:42:48.540Z,2.62
2017-09-13T03:45:16.146Z,3.22
2017-09-13T03:47:43.708Z,2.28
2017-09-13T03:50:11.277Z,2.17
2017-09-13T03:52:38.869Z,2.40
2017-09-13T03:55:06.453Z,3.08
2017-09-13T03:57:34.063Z,2.25
2017-09-13T04:00:01.618Z,2.65
2017-09-13T04:02:29.201Z,2.60
2017-09-13T04:04:56.793Z,1.90
2017-09-13T04:07:24.371Z,2.90
2017-09-13T04:09:52.724Z,2.30
2017-09-13T04:12:20.333Z,2.60
2017-09-13T04:14:47.975Z,2.90
2017-09-13T04:17:16.305Z,2.12
2017-09-13T04:19:43.941Z,2.37
2017-09-13T04:22:11.537Z,3.60
2017-09-13T04:24:39.102Z,2.90
2017-09-13T04:27:07.436Z,2.45
2017-09-13T04:29:35.026Z,2.65
2017-09-13T04:32:02.621Z,2.83
2017-09-13T04:34:30.187Z,2.97
2017-09-13T04:36:58.520Z,2.55
2017-09-13T04:39:26.100Z,3.20
2017-09-13T04:41:53.739Z,4.25
2017-09-13T04:44:22.134Z,2.72
2017-09-13T04:46:49.683Z,2.78
2017-09-13T04:49:17.250Z,2.75
2017-09-13T04:51:44.851Z,3.05
2017-09-13T04:54:13.228Z,3.15
2017-09-13T04:56:41.562Z,2.70
2017-09-13T04:59:09.114Z,3.20
2017-09-13T05:01:36.712Z,2.15
2017-09-13T05:04:04.306Z,2.95
2017-09-13T05:06:31.893Z,2.53
2017-09-13T05:08:59.493Z,3.67
2017-09-13T05:11:27.113Z,2.22
2017-09-13T05:13:54.713Z,2.62
2017-09-13T05:16:22.269Z,3.15
2017-09-13T05:18:49.820Z,2.75
2017-09-13T05:21:17.425Z,2.55
2017-09-13T05:23:45.848Z,3.37
2017-09-13T05:26:13.447Z,3.15
2017-09-13T05:28:41.009Z,3.72
2017-09-13T05:31:08.580Z,2.55
2017-09-13T05:33:36.980Z,2.53
2017-09-13T05:36:04.579Z,2.60
2017-09-13T05:38:32.140Z,4.60
2017-09-13T05:40:59.869Z,3.20
2017-09-13T05:43:27.428Z,2.50
2017-09-13T05:45:55.008Z,3.58
2017-09-13T05:48:22.609Z,3.15
2017-09-13T05:50:50.296Z,2.80
2017-09-13T05:53:18.738Z,2.75
2017-09-13T05:55:46.296Z,2.65
2017-09-13T05:58:13.897Z,2.25
2017-09-13T06:00:42.214Z,2.75
2017-09-13T06:03:09.841Z,2.80
2017-09-13T06:05:38.161Z,3.28
2017-09-13T06:08:05.724Z,2.75
2017-09-13T06:10:33.369Z,2.75
2017-09-13T06:13:01.847Z,2.45
2017-09-13T06:15:29.469Z,3.22
2017-09-13T06:17:57.048Z,2.45
2017-09-13T06:20:25.404Z,3.17
2017-09-13T06:22:52.957Z,2.92
2017-09-13T06:25:20.526Z,2.62
2017-09-13T06:27:48.113Z,2.87
2017-09-13T06:30:16.527Z,2.42
2017-09-13T06:32:44.121Z,2.30
2017-09-13T06:35:13.312Z,2.35
2017-09-13T06:37:40.873Z,2.87
2017-09-13T06:40:08.745Z,3.28
2017-09-13T06:42:36.320Z,3.25
2017-09-13T06:45:03.913Z,2.65
2017-09-13T06:47:31.547Z,2.62
2017-09-13T06:49:59.295Z,2.00
2017-09-13T06:52:26.853Z,2.50
2017-09-13T06:54:54.500Z,3.10
2017-09-13T06:57:22.268Z,3.37
2017-09-13T06:59:49.914Z,2.55
2017-09-13T07:02:17.559Z,3.22
2017-09-13T07:04:46.056Z,2.90
2017-09-13T07:07:14.575Z,3.15
2017-09-13T07:09:43.063Z,2.65
2017-09-13T07:12:10.713Z,3.62
2017-09-13T07:14:38.341Z,4.12
2017-09-13T07:17:06.001Z,4.97
2017-09-13T07:19:33.857Z,6.03
2017-09-13T07:22:01.566Z,4.50
2017-09-13T07:24:29.161Z,3.08
2017-09-13T07:26:57.479Z,2.72
2017-09-13T07:29:25.178Z,5.68
2017-09-13T07:31:52.799Z,3.70
2017-09-13T07:34:20.428Z,5.53
2017-09-13T07:36:48.069Z,4.87
2017-09-13T07:39:15.753Z,3.10
2017-09-13T07:41:44.200Z,3.20
2017-09-13T07:44:12.113Z,2.72
2017-09-13T07:46:39.787Z,2.60
2017-09-13T07:49:07.345Z,3.12
2017-09-13T07:51:34.896Z,2.22
2017-09-13T07:54:02.890Z,2.22
2017-09-13T07:56:30.469Z,2.55
2017-09-13T07:58:58.029Z,2.50
2017-09-13T08:01:25.884Z,2.12
2017-09-13T08:03:53.526Z,2.20
2017-09-13T08:06:21.085Z,2.42
2017-09-13T08:08:48.747Z,2.10
2017-09-13T08:11:16.394Z,2.00
2017-09-13T08:13:43.973Z,2.20
2017-09-13T08:16:11.674Z,2.50
2017-09-13T08:18:39.413Z,2.45
2017-09-13T08:21:07.008Z,2.40
2017-09-13T08:23:34.572Z,2.35
2017-09-13T08:26:02.293Z,2.25
2017-09-13T08:28:29.869Z,2.10
2017-09-13T08:30:57.425Z,2.33
2017-09-13T08:33:25.048Z,1.98
2017-09-13T08:35:52.633Z,2.15
2017-09-13T08:38:20.255Z,3.08
2017-09-13T08:40:48.624Z,2.28
2017-09-13T08:43:16.183Z,2.78
2017-09-13T08:45:43.856Z,1.77
2017-09-13T08:48:12.241Z,1.83
2017-09-13T08:50:40.566Z,2.00
2017-09-13T08:53:08.182Z,1.95
2017-09-13T08:55:36.538Z,2.30
2017-09-13T08:58:04.110Z,2.45
2017-09-13T09:00:33.158Z,1.80
2017-09-13T09:03:01.559Z,3.37
2017-09-13T09:05:29.154Z,1.80
2017-09-13T09:07:57.585Z,1.80
2017-09-13T09:10:25.241Z,1.20
2017-09-13T09:12:52.812Z,2.25
2017-09-13T09:15:21.205Z,1.80
2017-09-13T09:17:48.833Z,1.60
2017-09-13T09:20:17.614Z,2.50
2017-09-13T09:22:45.350Z,2.37
2017-09-13T09:25:13.864Z,1.35
2017-09-13T09:27:41.479Z,2.10
2017-09-13T09:30:28.265Z,2.20
2017-09-13T09:33:12.993Z,1.90
2017-09-13T09:35:42.049Z,1.95
2017-09-13T09:38:10.047Z,1.60
2017-09-13T09:40:37.702Z,2.00
2017-09-13T09:43:05.707Z,1.30
2017-09-13T09:45:34.449Z,1.15
2017-09-13T09:48:06.131Z,2.17
2017-09-13T09:50:39.771Z,2.60
2017-09-13T09:53:09.430Z,1.80
2017-09-13T09:55:40.429Z,2.08
2017-09-13T09:58:08.716Z,1.90
2017-09-13T10:00:41.630Z,2.00
2017-09-13T10:03:09.278Z,1.60
2017-09-13T10:05:41.993Z,1.70
2017-09-13T10:08:10.931Z,1.45
2017-09-13T10:10:42.478Z,1.27
2017-09-13T10:13:10.229Z,1.60
2017-09-13T10:15:43.251Z,1.50
2017-09-13T10:18:11.186Z,1.30
2017-09-13T10:20:38.756Z,2.80
2017-09-13T10:23:06.670Z,1.90
2017-09-13T10:25:35.675Z,2.30
2017-09-13T10:28:04.090Z,1.80
2017-09-13T10:30:31.710Z,0.95
2017-09-13T10:33:00.150Z,1.35
2017-09-13T10:35:27.797Z,1.90
2017-09-13T10:37:55.486Z,1.92
2017-09-13T10:40:23.096Z,1.80
2017-09-13T10:42:50.798Z,1.75
2017-09-13T10:45:18.462Z,1.95
2017-09-13T10:47:46.122Z,1.50
2017-09-13T10:50:13.708Z,1.77
2017-09-13T10:52:42.076Z,1.50
2017-09-13T10:55:09.683Z,1.70
2017-09-13T10:57:37.425Z,1.40
2017-09-13T11:00:05.819Z,3.10
2017-09-13T11:02:33.584Z,1.73
2017-09-13T11:05:01.164Z,1.47
2017-09-13T11:07:28.772Z,4.23
2017-09-13T11:09:56.365Z,2.30
2017-09-13T11:12:23.943Z,1.60
2017-09-13T11:14:51.557Z,1.23
2017-09-13T11:17:19.123Z,1.57
2017-09-13T11:19:46.831Z,1.53
2017-09-13T11:22:14.702Z,1.70
2017-09-13T11:24:42.597Z,2.13
2017-09-13T11:27:10.222Z,1.57
2017-09-13T11:29:38.007Z,1.60
2017-09-13T11:34:56.941Z,1.70
2017-09-13T11:37:25.557Z,1.67
2017-09-13T11:39:58.565Z,1.67
2017-09-13T11:42:32.520Z,1.70
2017-09-13T11:45:00.161Z,1.60
2017-09-13T11:47:27.867Z,1.37
2017-09-13T11:49:55.878Z,1.50
2017-09-13T11:52:23.533Z,2.00
2017-09-13T11:54:51.209Z,1.70
2017-09-13T11:57:19.948Z,1.60
2017-09-13T11:59:48.166Z,1.53
2017-09-13T12:02:15.836Z,1.97
2017-09-13T12:04:43.489Z,1.60
2017-09-13T12:07:11.212Z,1.87
2017-09-13T12:09:38.934Z,1.20
2017-09-13T12:12:06.651Z,1.63
2017-09-13T12:14:34.574Z,1.77
2017-09-13T12:17:02.334Z,1.57
2017-09-13T12:19:29.964Z,1.97
2017-09-13T12:21:57.791Z,1.77
2017-09-13T12:24:26.376Z,1.90
2017-09-13T12:26:55.146Z,1.30
2017-09-13T12:29:23.480Z,1.43
2017-09-13T12:31:53.329Z,1.40
2017-09-13T12:34:20.895Z,1.30
2017-09-13T12:36:49.525Z,1.57
2017-09-13T12:39:17.117Z,1.50
2017-09-13T12:41:44.839Z,1.20
2017-09-13T12:44:12.442Z,1.30
2017-09-13T12:46:40.044Z,1.70
2017-09-13T12:49:07.957Z,1.50
2017-09-13T12:51:35.698Z,1.47
2017-09-13T12:54:03.329Z,1.20
2017-09-13T12:56:31.070Z,1.50
2017-09-13T12:58:58.672Z,1.40
2017-09-13T13:01:28.073Z,1.57
2017-09-13T13:03:56.502Z,1.40
2017-09-13T13:06:24.160Z,1.43
2017-09-13T13:08:52.055Z,1.37
2017-09-13T13:11:20.169Z,1.70
2017-09-13T13:13:47.891Z,1.47
2017-09-13T13:16:15.529Z,1.67
2017-09-13T13:18:43.276Z,2.07
2017-09-13T13:21:10.966Z,1.50
2017-09-13T13:23:38.622Z,3.03
2017-09-13T13:26:06.340Z,1.87
2017-09-13T13:28:34.770Z,1.77
2017-09-13T13:31:02.345Z,1.40
2017-09-13T13:33:30.093Z,2.50
2017-09-13T13:35:57.708Z,2.00
2017-09-13T13:38:26.579Z,1.73
2017-09-13T13:43:28.227Z,2.47
2017-09-13T13:45:56.279Z,1.77
2017-09-13T13:48:24.203Z,1.80
2017-09-13T13:50:52.658Z,2.07
2017-09-13T13:53:20.365Z,1.80
2017-09-13T13:55:48.020Z,2.40
2017-09-13T13:58:16.596Z,2.13
2017-09-13T14:00:45.565Z,2.57
2017-09-13T14:03:13.323Z,2.42
2017-09-13T14:05:41.280Z,2.53
2017-09-13T14:08:09.790Z,2.00
2017-09-13T14:10:37.398Z,2.20
2017-09-13T14:13:05.230Z,2.90
2017-09-13T14:15:33.998Z,2.30
2017-09-13T14:18:01.612Z,1.97
2017-09-13T14:20:29.283Z,1.87
2017-09-13T14:22:57.365Z,1.80
2017-09-13T14:25:24.960Z,1.90
2017-09-13T14:27:52.517Z,2.25
2017-09-13T14:30:20.137Z,2.20
2017-09-13T14:32:47.774Z,1.90
2017-09-13T14:35:15.437Z,2.20
2017-09-13T14:37:43.018Z,2.50
2017-09-13T14:40:10.617Z,2.65
2017-09-13T14:42:38.323Z,2.30
2017-09-13T14:45:05.969Z,2.75
2017-09-13T14:47:33.664Z,2.60
2017-09-13T14:50:01.354Z,2.67
2017-09-13T14:52:29.049Z,2.45
2017-09-13T14:54:56.798Z,2.80
2017-09-13T14:57:24.562Z,2.50
2017-09-13T14:59:52.213Z,2.85
2017-09-13T15:02:19.837Z,2.85
2017-09-13T15:04:47.590Z,2.33
2017-09-13T15:07:16.388Z,2.97
2017-09-13T15:09:44.945Z,2.67
2017-09-13T15:12:12.633Z,3.10
2017-09-13T15:14:40.472Z,2.60
2017-09-13T15:17:09.025Z,2.72
2017-09-13T15:19:36.619Z,2.50
2017-09-13T15:22:04.297Z,3.05
2017-09-13T15:24:32.633Z,3.53
2017-09-13T15:27:00.270Z,3.50
2017-09-13T15:29:27.969Z,3.35
2017-09-13T15:31:55.651Z,4.07
2017-09-13T15:34:23.214Z,4.15
2017-09-13T15:36:52.306Z,3.20
2017-09-13T15:39:20.784Z,4.32
2017-09-13T15:41:48.489Z,4.20
2017-09-13T15:44:16.606Z,4.32
2017-09-13T15:46:44.677Z,3.75
2017-09-13T15:49:12.507Z,3.72
2017-09-13T15:51:40.191Z,2.20
2017-09-13T15:54:08.187Z,2.58
2017-09-13T15:56:35.909Z,1.73
2017-09-13T15:59:03.562Z,2.20
2017-09-13T16:01:31.232Z,2.00
2017-09-13T16:04:00.192Z,1.75
2017-09-13T16:06:27.862Z,2.42
2017-09-13T16:08:56.492Z,1.92
2017-09-13T16:11:24.262Z,1.90
2017-09-13T16:13:51.919Z,1.77
2017-09-13T16:16:20.332Z,1.80
2017-09-13T16:18:47.993Z,1.87
2017-09-13T16:21:15.611Z,1.65
2017-09-13T16:23:44.033Z,1.55
2017-09-13T16:26:11.602Z,1.40
2017-09-13T16:28:39.206Z,1.55
2017-09-13T16:31:06.799Z,1.55
2017-09-13T16:33:34.779Z,1.65
2017-09-13T16:36:02.405Z,1.40
2017-09-13T16:38:29.971Z,2.05
2017-09-13T16:40:57.659Z,1.95
2017-09-13T16:43:25.224Z,1.60
2017-09-13T16:45:52.829Z,1.40
2017-09-13T16:48:21.435Z,1.90
2017-09-13T16:50:49.042Z,1.80
2017-09-13T16:53:16.668Z,2.00
2017-09-13T16:55:44.273Z,2.87
2017-09-13T16:58:12.001Z,2.30
2017-09-13T17:00:39.617Z,2.28
2017-09-13T17:03:08.013Z,2.50
2017-09-13T17:05:35.701Z,2.42
2017-09-13T17:08:03.356Z,3.37
2017-09-13T17:10:31.735Z,3.03
2017-09-13T17:12:59.302Z,3.10
2017-09-13T17:15:26.965Z,3.90
2017-09-13T17:17:54.543Z,3.40
2017-09-13T17:20:22.284Z,3.25
2017-09-13T17:22:49.880Z,4.05
2017-09-13T17:25:17.615Z,3.80
2017-09-13T17:27:45.176Z,4.05
2017-09-13T17:30:12.793Z,3.50
2017-09-13T17:32:41.120Z,3.80
2017-09-13T17:35:08.786Z,4.05
2017-09-13T17:37:36.385Z,4.75
2017-09-13T17:40:04.104Z,5.30
2017-09-13T17:42:31.693Z,4.85
2017-09-13T17:44:59.270Z,5.05
2017-09-13T17:47:26.855Z,3.65
2017-09-13T17:49:56.406Z,3.50
2017-09-13T17:52:25.230Z,4.00
2017-09-13T17:54:53.561Z,4.97
2017-09-13T17:57:21.173Z,4.60
2017-09-13T17:59:49.498Z,4.20
2017-09-13T18:02:17.138Z,7.10
2017-09-13T18:04:44.868Z,5.87
2017-09-13T18:07:12.421Z,4.37
2017-09-13T18:09:40.022Z,5.10
2017-09-13T18:12:07.582Z,4.87
2017-09-13T18:14:35.380Z,4.55
2017-09-13T18:17:02.970Z,6.30
2017-09-13T18:19:30.606Z,5.03
2017-09-13T18:21:58.178Z,5.80
2017-09-13T18:24:25.877Z,8.60
2017-09-13T18:26:54.247Z,6.25
2017-09-13T18:29:22.622Z,5.97
2017-09-13T18:31:55.101Z,6.45
2017-09-13T18:34:23.463Z,6.60
2017-09-13T18:36:51.063Z,5.35
2017-09-13T18:39:19.429Z,6.60
2017-09-13T18:41:47.161Z,5.50
2017-09-13T18:44:15.181Z,8.40
2017-09-13T18:46:42.742Z,7.03
2017-09-13T18:49:10.367Z,10.85
2017-09-13T18:51:37.924Z,6.62
2017-09-13T18:54:05.533Z,6.50
2017-09-13T18:56:33.175Z,7.57
2017-09-13T18:59:01.486Z,8.98
2017-09-13T19:01:29.269Z,9.52
2017-09-13T19:03:56.892Z,8.45
2017-09-13T19:06:24.500Z,9.73
2017-09-13T19:08:52.074Z,10.70
2017-09-13T19:11:19.772Z,14.77
2017-09-13T19:13:47.365Z,7.72
2017-09-13T19:16:14.967Z,11.05
2017-09-13T19:18:43.365Z,10.65
2017-09-13T19:21:10.934Z,8.13
2017-09-13T19:23:38.979Z,8.50
2017-09-13T19:26:08.058Z,10.48
2017-09-13T19:28:35.627Z,10.93
2017-09-13T19:31:03.225Z,11.80
2017-09-13T19:33:30.800Z,8.82
2017-09-13T19:35:58.417Z,8.38
2017-09-13T19:38:26.043Z,7.80
2017-09-13T19:40:53.608Z,10.07
2017-09-13T19:43:21.209Z,8.25
2017-09-13T19:45:49.763Z,9.80
2017-09-13T19:48:17.324Z,8.95
2017-09-13T19:50:44.892Z,6.00
2017-09-13T19:53:14.027Z,5.78
2017-09-13T19:55:42.355Z,7.20
2017-09-13T19:58:09.941Z,6.50
2017-09-13T20:00:37.527Z,5.05
2017-09-13T20:03:05.085Z,6.50
2017-09-13T20:05:32.697Z,6.40
2017-09-13T20:08:00.254Z,6.05
2017-09-13T20:10:27.807Z,6.95
2017-09-13T20:12:55.409Z,5.78
2017-09-13T20:15:22.997Z,5.68
2017-09-13T20:17:51.307Z,5.18
2017-09-13T20:20:18.929Z,6.25
2017-09-13T20:22:46.488Z,6.90
2017-09-13T20:25:14.813Z,7.20
2017-09-13T20:27:42.401Z,7.10
2017-09-13T20:30:09.966Z,8.85
2017-09-13T20:32:37.617Z,9.77
2017-09-13T20:35:05.181Z,6.68
2017-09-13T20:37:32.742Z,9.48
2017-09-13T20:40:00.362Z,8.05
2017-09-13T20:42:27.962Z,6.80
2017-09-13T20:44:55.561Z,5.87
2017-09-13T20:47:23.146Z,5.57
2017-09-13T20:49:50.710Z,3.60
2017-09-13T20:52:18.310Z,3.45
2017-09-13T20:54:45.865Z,2.80
2017-09-13T20:57:13.450Z,3.92
2017-09-13T20:59:41.018Z,3.72
2017-09-13T21:02:09.404Z,3.35
2017-09-13T21:04:37.723Z,4.22
2017-09-13T21:07:05.277Z,6.40
2017-09-13T21:09:32.877Z,6.00
2017-09-13T21:12:01.361Z,4.45
2017-09-13T21:14:28.941Z,5.60
2017-09-13T21:16:57.343Z,5.37
2017-09-13T21:19:24.904Z,5.05
2017-09-13T21:21:52.476Z,4.00
2017-09-13T21:24:20.072Z,3.30
2017-09-13T21:26:47.680Z,4.65
2017-09-13T21:29:15.241Z,4.68
2017-09-13T21:31:42.796Z,3.90
2017-09-13T21:34:10.394Z,4.57
2017-09-13T21:36:37.998Z,4.70
2017-09-13T21:39:06.309Z,3.75
2017-09-13T21:41:33.914Z,4.53
2017-09-13T21:44:01.453Z,4.75
2017-09-13T21:46:29.009Z,6.35
2017-09-13T21:48:56.585Z,5.12
2017-09-13T21:51:24.189Z,6.00
2017-09-13T21:53:52.504Z,4.72
2017-09-13T21:56:20.114Z,4.75
2017-09-13T21:58:48.433Z,5.53
2017-09-13T22:01:15.997Z,6.50
2017-09-13T22:03:43.607Z,6.85
2017-09-13T22:06:11.177Z,5.93
2017-09-13T22:08:39.502Z,7.20
2017-09-13T22:11:07.131Z,7.93
2017-09-13T22:13:34.702Z,9.60
2017-09-13T22:16:02.250Z,7.22
2017-09-13T22:18:30.626Z,8.38
2017-09-13T22:20:58.948Z,9.55
2017-09-13T22:23:26.526Z,7.65
2017-09-13T22:25:54.120Z,6.80
2017-09-13T22:28:22.513Z,10.60
2017-09-13T22:30:50.101Z,8.77
2017-09-13T22:33:17.659Z,8.07
2017-09-13T22:35:46.017Z,8.98
2017-09-13T22:38:13.629Z,8.52
2017-09-13T22:40:41.223Z,9.70
2017-09-13T22:43:09.567Z,9.20
2017-09-13T22:45:37.974Z,14.45
2017-09-13T22:48:05.545Z,16.62
2017-09-13T22:50:33.902Z,19.80
2017-09-13T22:53:01.504Z,17.62
2017-09-13T22:55:29.150Z,20.92
2017-09-13T22:57:57.515Z,19.92
2017-09-13T23:00:25.841Z,18.42
2017-09-13T23:02:53.444Z,20.10
2017-09-13T23:05:21.025Z,18.90
2017-09-13T23:07:49.390Z,19.45
2017-09-13T23:10:17.750Z,19.60
2017-09-13T23:12:45.311Z,28.40
2017-09-13T23:15:12.909Z,27.27
2017-09-13T23:17:41.327Z,20.40
2017-09-13T23:20:08.931Z,23.80
2017-09-13T23:22:37.255Z,17.25
2017-09-13T23:25:04.882Z,19.45
2017-09-13T23:27:33.225Z,18.60
2017-09-13T23:30:00.780Z,19.62
2017-09-13T23:32:28.384Z,19.30
2017-09-13T23:34:55.964Z,21.70
2017-09-13T23:37:23.574Z,29.12
2017-09-13T23:39:51.137Z,28.20
2017-09-13T23:42:18.712Z,27.23
2017-09-13T23:44:46.339Z,25.98
2017-09-13T23:47:13.909Z,26.67
2017-09-13T23:49:41.486Z,25.52
2017-09-13T23:52:09.092Z,24.20
2017-09-13T23:54:36.654Z,27.92
2017-09-13T23:57:04.213Z,25.00
2017-09-13T23:59:31.810Z,26.05
